Jur'Evec, Russia
Current Conditions -  °F | °C
As of 1:00 AM on Monday 22 Dec 2014 (Local Time) from UWGG Reporting Station
Light Snow Light Snow  
Wind Chill: 27°   Ceiling: 1200
Heat Index: 34°   Visibility: 6mi
Dew Point: 32°   Wind: 9mph
Humidity: 93%   Direction: 190°S
Pressure: 29.5"   Gusts: NA
Location:  57.33°N, 43.12°E
Report Text: UWGG 212200Z 19004MPS 9999 -SN OVC012 01/M00 Q0999 NOSIG18120048 RMK QFE743
Loading
Personal Weather Stations






























Interactive Weather Map New forecast layout! Learn more

10-Day Weather Forecast

Advertisements
Track Severe Weather on mobile